KFTK/FTK METAR and TAF weather

Enter ICAO airport designator
Station Type Date Time Source
KFTK METAR 2022/06/25 21:56 UTC NOAA

KFTK 252156Z AUTO 34008KT 10SM FEW170 FEW210 32/19 A3000 RMK AO2 SLP154 T03210190 $


Station Type Date Time Source
KFTK Decoded METAR 2022/06/25 21:56 UTC NOAA

Fort Knox, KY, United States (KFTK) 37-54N 085-58W 230M
Jun 25, 2022 - 05:56 PM EDT / 2022.06.25 2156 UTC
Wind: from the NNW (340 degrees) at 9 MPH (8 KT):0
Visibility: 10 mile(s):0
Sky conditions: mostly clear
Temperature: 89.8 F (32.1 C)
Dew Point: 66.2 F (19.0 C)
Relative Humidity: 45%
Pressure (altimeter): 30 in. Hg (1015 hPa)
ob: KFTK 252156Z AUTO 34008KT 10SM FEW170 FEW210 32/19 A3000 RMK AO2 SLP154 T03210190
cycle: 22

Station Type Date Time Source
KFTK TAF 2022/06/24 19:06 UTC NOAA

TAF KFTK 241900Z 2419/2601 03008KT 9999 SCT040 BKN200 QNH2998INS
BECMG 2501/2502 VRB05KT 9999 SCT100 BKN200 QNH3000INS
BECMG 2516/2517 12008KT 9999 SCT040 SCT100 BKN200 QNH2996INS TX32/2421Z TN16/2511Z LAST NO
AMDS AFT 2503 NEXT 2711

Example: see airport list